createdAt,value
2018-01-27T00:02:21.324Z,1.30
2018-01-27T00:04:47.540Z,1.30
2018-01-27T00:07:13.892Z,1.30
2018-01-27T00:09:40.187Z,1.40
2018-01-27T00:12:06.393Z,1.50
2018-01-27T00:14:32.684Z,1.50
2018-01-27T00:16:58.919Z,1.60
2018-01-27T00:19:25.153Z,1.60
2018-01-27T00:21:51.357Z,1.70
2018-01-27T00:24:17.578Z,1.70
2018-01-27T00:26:43.783Z,1.80
2018-01-27T00:29:10.763Z,1.90
2018-01-27T00:31:37.016Z,1.80
2018-01-27T00:34:03.284Z,1.90
2018-01-27T00:36:30.283Z,2.00
2018-01-27T00:38:56.604Z,1.90
2018-01-27T00:41:22.835Z,2.00
2018-01-27T00:43:49.077Z,1.90
2018-01-27T00:46:15.304Z,2.00
2018-01-27T00:48:41.564Z,2.00
2018-01-27T00:51:07.781Z,2.00
2018-01-27T00:53:34.013Z,2.00
2018-01-27T00:56:00.276Z,2.00
2018-01-27T00:58:27.217Z,2.10
2018-01-27T01:00:54.197Z,2.00
2018-01-27T01:03:20.412Z,2.00
2018-01-27T01:05:47.415Z,2.00
2018-01-27T01:08:13.709Z,1.90
2018-01-27T01:10:39.924Z,2.00
2018-01-27T01:13:06.204Z,2.00
2018-01-27T01:15:32.427Z,2.10
2018-01-27T01:17:58.696Z,2.10
2018-01-27T01:20:25.706Z,2.20
2018-01-27T01:22:51.941Z,2.20
2018-01-27T01:25:18.184Z,2.20
2018-01-27T01:27:44.372Z,2.20
2018-01-27T01:30:10.627Z,2.30
2018-01-27T01:32:36.853Z,2.40
2018-01-27T01:35:03.136Z,2.40
2018-01-27T01:37:30.117Z,2.40
2018-01-27T01:39:56.362Z,2.40
2018-01-27T01:42:28.548Z,2.40
2018-01-27T01:44:54.779Z,2.40
2018-01-27T01:47:20.989Z,2.40
2018-01-27T01:49:47.236Z,2.40
2018-01-27T01:52:13.523Z,2.50
2018-01-27T01:54:39.766Z,2.50
2018-01-27T01:57:06.031Z,2.50
2018-01-27T01:59:32.258Z,2.60
2018-01-27T02:01:58.492Z,2.60
2018-01-27T02:04:24.764Z,2.70
2018-01-27T02:06:50.975Z,2.70
2018-01-27T02:09:17.955Z,2.80
2018-01-27T02:11:44.189Z,2.80
2018-01-27T02:14:10.413Z,2.90
2018-01-27T02:16:36.698Z,2.90
2018-01-27T02:19:02.915Z,2.90
2018-01-27T02:21:29.156Z,3.00
2018-01-27T02:23:55.426Z,3.00
2018-01-27T02:26:21.670Z,3.00
2018-01-27T02:28:47.870Z,2.90
2018-01-27T02:31:14.859Z,2.90
2018-01-27T02:33:41.096Z,2.80
2018-01-27T02:36:07.381Z,2.90
2018-01-27T02:38:34.381Z,2.90
2018-01-27T02:41:00.657Z,2.80
2018-01-27T02:43:27.657Z,3.00
2018-01-27T02:45:54.016Z,2.90
2018-01-27T02:48:20.233Z,2.90
2018-01-27T02:50:46.481Z,3.00
2018-01-27T02:53:12.708Z,3.00
2018-01-27T02:55:38.909Z,3.00
2018-01-27T02:58:05.164Z,3.00
2018-01-27T03:00:31.442Z,3.00
2018-01-27T03:02:57.677Z,3.00
2018-01-27T03:05:24.019Z,3.00
2018-01-27T03:07:50.252Z,3.10
2018-01-27T03:10:16.470Z,3.10
2018-01-27T03:12:42.738Z,3.20
2018-01-27T03:15:09.711Z,3.20
2018-01-27T03:17:36.722Z,3.10
2018-01-27T03:20:03.046Z,3.10
2018-01-27T03:22:29.288Z,3.10
2018-01-27T03:24:55.536Z,3.00
2018-01-27T03:27:21.775Z,3.00
2018-01-27T03:29:47.985Z,3.00
2018-01-27T03:32:14.208Z,2.90
2018-01-27T03:34:40.440Z,2.90
2018-01-27T03:37:06.669Z,3.00
2018-01-27T03:39:32.904Z,3.00
2018-01-27T03:41:59.121Z,3.00
2018-01-27T03:44:25.348Z,3.10
2018-01-27T03:46:51.580Z,3.10
2018-01-27T03:49:17.804Z,3.20
2018-01-27T03:51:44.073Z,3.20
2018-01-27T03:54:10.282Z,3.30
2018-01-27T03:56:36.483Z,3.30
2018-01-27T03:59:02.717Z,3.40
2018-01-27T04:01:28.957Z,3.40
2018-01-27T04:03:55.220Z,3.40
2018-01-27T04:06:21.475Z,3.50
2018-01-27T04:08:48.461Z,3.50
2018-01-27T04:11:14.673Z,3.50
2018-01-27T04:13:40.939Z,3.50
2018-01-27T04:16:07.172Z,3.40
2018-01-27T04:18:33.418Z,3.30
2018-01-27T04:20:59.680Z,3.20
2018-01-27T04:23:25.933Z,3.20
2018-01-27T04:25:52.184Z,3.20
2018-01-27T04:28:18.419Z,3.20
2018-01-27T04:30:44.747Z,3.10
2018-01-27T04:33:10.958Z,3.00
2018-01-27T04:35:37.234Z,2.90
2018-01-27T04:38:03.489Z,2.80
2018-01-27T04:40:29.756Z,2.70
2018-01-27T04:42:55.992Z,2.60
2018-01-27T04:45:22.269Z,2.60
2018-01-27T04:47:49.221Z,2.60
2018-01-27T04:50:16.192Z,2.60
2018-01-27T04:52:42.423Z,2.50
2018-01-27T04:55:08.632Z,2.60
2018-01-27T04:57:35.614Z,2.60
2018-01-27T05:00:01.854Z,2.60
2018-01-27T05:02:28.105Z,2.60
2018-01-27T05:04:54.364Z,2.60
2018-01-27T05:07:21.363Z,2.50
2018-01-27T05:09:47.674Z,2.50
2018-01-27T05:12:13.908Z,2.50
2018-01-27T05:14:40.123Z,2.40
2018-01-27T05:17:06.364Z,2.40
2018-01-27T05:19:32.592Z,2.30
2018-01-27T05:21:58.825Z,2.10
2018-01-27T05:24:26.053Z,2.10
2018-01-27T05:26:52.308Z,2.00
2018-01-27T05:29:18.512Z,1.90
2018-01-27T05:31:44.773Z,1.90
2018-01-27T05:34:11.008Z,1.80
2018-01-27T05:36:37.230Z,1.80
2018-01-27T05:39:03.509Z,1.80
2018-01-27T05:41:29.740Z,1.80
2018-01-27T05:43:56.788Z,1.90
2018-01-27T05:46:23.120Z,1.80
2018-01-27T05:48:49.365Z,1.90
2018-01-27T05:51:16.342Z,1.90
2018-01-27T05:53:42.581Z,1.90
2018-01-27T05:56:08.817Z,2.00
2018-01-27T05:58:35.071Z,1.90
2018-01-27T06:01:01.371Z,1.90
2018-01-27T06:03:27.609Z,1.80
2018-01-27T06:05:53.840Z,1.80
2018-01-27T06:08:20.126Z,1.80
2018-01-27T06:10:47.101Z,1.80
2018-01-27T06:13:13.321Z,1.80
2018-01-27T06:15:39.606Z,1.90
2018-01-27T06:18:05.911Z,1.90
2018-01-27T06:20:32.140Z,1.90
2018-01-27T06:22:58.402Z,1.90
2018-01-27T06:25:24.644Z,1.90
2018-01-27T06:27:50.864Z,1.90
2018-01-27T06:30:17.085Z,1.90
2018-01-27T06:32:43.310Z,1.90
2018-01-27T06:35:09.552Z,1.90
2018-01-27T06:37:35.816Z,1.90
2018-01-27T06:40:02.056Z,1.90
2018-01-27T06:42:28.442Z,1.90
2018-01-27T06:44:54.680Z,1.90
2018-01-27T06:47:20.898Z,1.80
2018-01-27T06:49:47.141Z,1.80
2018-01-27T06:52:13.389Z,1.70
2018-01-27T06:54:40.356Z,1.70
2018-01-27T06:57:06.567Z,1.70
2018-01-27T06:59:33.556Z,1.70
2018-01-27T07:01:59.808Z,1.60
2018-01-27T07:04:26.065Z,1.60
2018-01-27T07:06:53.056Z,1.70
2018-01-27T07:09:19.284Z,1.70
2018-01-27T07:11:45.555Z,1.60
2018-01-27T07:14:11.804Z,1.70
2018-01-27T07:16:38.772Z,1.70
2018-01-27T07:19:05.010Z,1.70
2018-01-27T07:21:31.226Z,1.70
2018-01-27T07:23:58.200Z,1.70
2018-01-27T07:26:24.497Z,1.60
2018-01-27T07:28:51.463Z,1.70
2018-01-27T07:31:18.425Z,1.70
2018-01-27T07:33:44.663Z,1.60
2018-01-27T07:36:10.885Z,1.70
2018-01-27T07:38:37.218Z,1.70
2018-01-27T07:41:03.447Z,1.70
2018-01-27T07:43:29.643Z,1.70
2018-01-27T07:45:56.657Z,1.70
2018-01-27T07:48:22.862Z,1.60
2018-01-27T07:50:49.085Z,1.70
2018-01-27T07:53:15.325Z,1.70
2018-01-27T07:55:41.540Z,1.70
2018-01-27T07:58:07.775Z,1.80
2018-01-27T08:00:34.009Z,1.80
2018-01-27T08:03:00.245Z,1.90
2018-01-27T08:05:26.487Z,1.90
2018-01-27T08:07:52.701Z,2.00
2018-01-27T08:10:18.946Z,2.10
2018-01-27T08:12:45.158Z,2.20
2018-01-27T08:15:11.395Z,2.20
2018-01-27T08:17:37.636Z,2.20
2018-01-27T08:20:03.853Z,2.20
2018-01-27T08:22:30.095Z,2.30
2018-01-27T08:24:56.317Z,2.30
2018-01-27T08:27:22.594Z,2.30
2018-01-27T08:29:49.574Z,2.40
2018-01-27T08:32:15.901Z,2.40
2018-01-27T08:34:42.140Z,2.60
2018-01-27T08:37:08.356Z,2.70
2018-01-27T08:39:34.593Z,2.90
2018-01-27T08:42:00.872Z,3.00
2018-01-27T08:44:27.125Z,3.10
2018-01-27T08:47:01.133Z,3.00
2018-01-27T08:49:28.113Z,2.90
2018-01-27T08:51:54.352Z,2.90
2018-01-27T08:54:20.561Z,2.90
2018-01-27T08:56:46.809Z,2.80
2018-01-27T08:59:13.070Z,2.80
2018-01-27T09:01:39.303Z,2.90
2018-01-27T09:04:05.514Z,3.10
2018-01-27T09:06:31.744Z,3.30
2018-01-27T09:08:57.973Z,3.40
2018-01-27T09:11:24.236Z,3.30
2018-01-27T09:13:50.447Z,3.50
2018-01-27T09:16:16.690Z,3.50
2018-01-27T09:18:42.920Z,3.60
2018-01-27T09:21:09.149Z,3.50
2018-01-27T09:23:35.421Z,3.60
2018-01-27T09:26:01.708Z,3.60
2018-01-27T09:28:27.928Z,3.70
2018-01-27T09:30:54.240Z,3.80
2018-01-27T09:33:20.463Z,3.80
2018-01-27T09:35:46.783Z,3.70
2018-01-27T09:38:12.994Z,3.90
2018-01-27T09:40:39.277Z,4.00
2018-01-27T09:43:05.522Z,4.00
2018-01-27T09:45:31.758Z,4.10
2018-01-27T09:47:58.034Z,4.30
2018-01-27T09:50:24.255Z,4.10
2018-01-27T09:52:50.507Z,4.10
2018-01-27T09:55:16.772Z,4.20
2018-01-27T09:57:43.175Z,4.30
2018-01-27T10:00:09.676Z,4.30
2018-01-27T10:02:36.043Z,4.40
2018-01-27T10:05:02.501Z,4.30
2018-01-27T10:07:28.901Z,4.40
2018-01-27T10:09:55.387Z,4.60
2018-01-27T10:12:21.780Z,4.90
2018-01-27T10:14:48.219Z,5.10
2018-01-27T10:17:14.654Z,5.30
2018-01-27T10:19:41.074Z,5.50
2018-01-27T10:22:07.509Z,5.80
2018-01-27T10:24:33.922Z,5.70
2018-01-27T10:27:01.122Z,5.90
2018-01-27T10:29:27.579Z,5.90
2018-01-27T10:31:53.995Z,5.80
2018-01-27T10:34:20.395Z,5.80
2018-01-27T10:36:46.813Z,5.70
2018-01-27T10:39:13.994Z,5.70
2018-01-27T10:41:40.438Z,5.70
2018-01-27T10:44:06.842Z,6.00
2018-01-27T10:46:33.297Z,6.10
2018-01-27T10:48:59.729Z,6.30
2018-01-27T10:51:26.194Z,6.20
2018-01-27T10:53:52.595Z,6.30
2018-01-27T10:56:19.046Z,6.20
2018-01-27T10:58:45.448Z,6.30
2018-01-27T11:01:11.921Z,6.00
2018-01-27T11:03:38.385Z,5.90
2018-01-27T11:06:04.827Z,5.70
2018-01-27T11:08:31.990Z,5.30
2018-01-27T11:10:59.143Z,5.20
2018-01-27T11:13:26.312Z,5.20
2018-01-27T11:15:52.729Z,5.10
2018-01-27T11:18:19.909Z,5.20
2018-01-27T11:20:46.350Z,5.20
2018-01-27T11:23:12.746Z,5.30
2018-01-27T11:25:39.927Z,5.50
2018-01-27T11:28:06.324Z,5.40
2018-01-27T11:30:32.794Z,5.20
2018-01-27T11:32:59.269Z,5.30
2018-01-27T11:35:25.722Z,5.50
2018-01-27T11:37:52.166Z,5.70
2018-01-27T11:40:19.318Z,5.60
2018-01-27T11:42:46.477Z,5.70
2018-01-27T11:45:13.642Z,5.80
2018-01-27T11:47:40.061Z,5.80
2018-01-27T11:50:06.513Z,6.00
2018-01-27T11:52:32.938Z,5.90
2018-01-27T11:55:00.076Z,5.90
2018-01-27T11:57:27.283Z,5.80
2018-01-27T11:59:53.777Z,5.70
2018-01-27T12:02:20.966Z,5.80
2018-01-27T12:04:47.481Z,5.70
2018-01-27T12:07:13.881Z,5.90
2018-01-27T12:09:40.324Z,5.90
2018-01-27T12:12:06.730Z,5.80
2018-01-27T12:14:33.161Z,5.70
2018-01-27T12:16:59.603Z,5.60
2018-01-27T12:19:26.023Z,5.40
2018-01-27T12:21:52.534Z,5.40
2018-01-27T12:24:19.017Z,5.30
2018-01-27T12:26:45.382Z,5.20
2018-01-27T12:29:12.500Z,5.20
2018-01-27T12:31:38.949Z,5.20
2018-01-27T12:34:06.094Z,5.30
2018-01-27T12:36:32.571Z,5.30
2018-01-27T12:38:59.040Z,5.40
2018-01-27T12:41:25.454Z,5.30
2018-01-27T12:43:51.903Z,5.40
2018-01-27T12:46:18.407Z,5.40
2018-01-27T12:48:44.834Z,5.50
2018-01-27T12:51:12.186Z,5.80
2018-01-27T12:53:39.356Z,5.80
2018-01-27T12:56:05.792Z,5.70
2018-01-27T12:58:32.309Z,5.70
2018-01-27T13:00:58.813Z,5.50
2018-01-27T13:03:25.266Z,5.40
2018-01-27T13:05:52.445Z,5.50
2018-01-27T13:08:18.868Z,5.50
2018-01-27T13:10:46.034Z,5.60
2018-01-27T13:13:12.465Z,5.60
2018-01-27T13:15:38.877Z,5.70
2018-01-27T13:18:06.038Z,5.80
2018-01-27T13:20:33.200Z,5.90
2018-01-27T13:23:00.103Z,5.80
2018-01-27T13:25:26.587Z,5.80
2018-01-27T13:27:53.440Z,5.70
2018-01-27T13:30:19.880Z,5.70
2018-01-27T13:32:46.676Z,5.70
2018-01-27T13:35:13.954Z,5.70
2018-01-27T13:37:40.379Z,5.70
2018-01-27T13:40:08.506Z,5.70
2018-01-27T13:42:35.474Z,5.70
2018-01-27T13:45:02.034Z,5.70
2018-01-27T13:47:29.217Z,5.70
2018-01-27T13:49:55.671Z,5.70
2018-01-27T13:52:22.201Z,5.70
2018-01-27T13:54:48.669Z,5.70
2018-01-27T13:57:15.146Z,5.80
2018-01-27T13:59:41.584Z,5.60
2018-01-27T14:02:08.053Z,5.50
2018-01-27T14:04:34.631Z,5.50
2018-01-27T14:07:01.940Z,5.50
2018-01-27T14:09:28.453Z,5.40
2018-01-27T14:11:54.866Z,5.40
2018-01-27T14:14:22.746Z,5.20
2018-01-27T14:16:50.157Z,5.20
2018-01-27T14:19:16.728Z,5.10
2018-01-27T14:21:45.390Z,5.20
2018-01-27T14:24:11.866Z,5.20
2018-01-27T14:26:39.137Z,5.10
2018-01-27T14:29:05.894Z,5.00
2018-01-27T14:31:34.702Z,5.10
2018-01-27T14:34:01.409Z,5.20
2018-01-27T14:36:38.266Z,5.20
2018-01-27T14:39:06.604Z,5.00
2018-01-27T14:41:33.013Z,4.90
2018-01-27T14:43:59.473Z,5.00
2018-01-27T14:46:27.826Z,4.90
2018-01-27T14:48:54.293Z,4.80
2018-01-27T14:51:22.197Z,4.90
2018-01-27T14:53:49.518Z,4.80
2018-01-27T14:56:16.497Z,4.80
2018-01-27T14:58:43.685Z,4.50
2018-01-27T15:01:09.890Z,4.50
2018-01-27T15:03:36.147Z,4.50
2018-01-27T15:06:02.602Z,4.50
2018-01-27T15:08:28.898Z,4.40
2018-01-27T15:10:55.297Z,4.40
2018-01-27T15:13:22.813Z,4.30
2018-01-27T15:15:49.224Z,4.20
2018-01-27T15:18:15.681Z,4.30
2018-01-27T15:20:42.137Z,4.20
2018-01-27T15:23:08.554Z,4.10
2018-01-27T15:25:34.988Z,4.10
2018-01-27T15:28:01.402Z,4.00
2018-01-27T15:30:27.953Z,3.90
2018-01-27T15:32:54.466Z,3.90
2018-01-27T15:35:20.901Z,3.80
2018-01-27T15:37:47.895Z,3.80
2018-01-27T15:40:14.374Z,3.70
2018-01-27T15:42:41.590Z,3.70
2018-01-27T15:45:08.033Z,3.60
2018-01-27T15:47:34.474Z,3.60
2018-01-27T15:50:00.724Z,3.50
2018-01-27T15:52:27.794Z,3.50
2018-01-27T15:54:54.030Z,3.40
2018-01-27T15:57:20.296Z,3.50
2018-01-27T15:59:46.821Z,3.50
2018-01-27T16:02:13.141Z,3.50
2018-01-27T16:04:39.432Z,3.40
2018-01-27T16:07:06.481Z,3.40
2018-01-27T16:09:32.907Z,3.40
2018-01-27T16:11:59.254Z,3.50
2018-01-27T16:14:25.679Z,3.40
2018-01-27T16:16:52.667Z,3.40
2018-01-27T16:19:18.920Z,3.30
2018-01-27T16:21:45.284Z,3.30
2018-01-27T16:24:11.651Z,3.30
2018-01-27T16:26:37.875Z,3.30
2018-01-27T16:29:04.130Z,3.30
2018-01-27T16:31:30.457Z,3.30
2018-01-27T16:33:56.805Z,3.30
2018-01-27T16:36:23.312Z,3.30
2018-01-27T16:38:49.699Z,3.30
2018-01-27T16:41:15.982Z,3.30
2018-01-27T16:43:42.249Z,3.40
2018-01-27T16:46:08.518Z,3.40
2018-01-27T16:48:34.843Z,3.40
2018-01-27T16:51:01.850Z,3.40
2018-01-27T16:53:28.052Z,3.30
2018-01-27T16:55:54.319Z,3.40
2018-01-27T16:58:20.590Z,3.40
2018-01-27T17:00:47.600Z,3.40
2018-01-27T17:03:13.991Z,3.30
2018-01-27T17:05:40.334Z,3.30
2018-01-27T17:08:06.751Z,3.30
2018-01-27T17:10:32.977Z,3.30
2018-01-27T17:12:59.995Z,3.30
2018-01-27T17:15:26.293Z,3.30
2018-01-27T17:17:52.572Z,3.30
2018-01-27T17:20:19.533Z,3.40
2018-01-27T17:22:46.572Z,3.40
2018-01-27T17:25:13.707Z,3.40
2018-01-27T17:27:39.949Z,3.30
2018-01-27T17:30:06.989Z,3.40
2018-01-27T17:32:33.724Z,3.30
2018-01-27T17:35:00.092Z,3.40
2018-01-27T17:37:26.396Z,3.40
2018-01-27T17:39:53.368Z,3.40
2018-01-27T17:42:19.605Z,3.40
2018-01-27T17:44:45.844Z,3.40
2018-01-27T17:47:12.104Z,3.40
2018-01-27T17:49:38.332Z,3.40
2018-01-27T17:52:04.617Z,3.40
2018-01-27T17:54:30.915Z,3.40
2018-01-27T17:56:57.218Z,3.40
2018-01-27T17:59:23.439Z,3.50
2018-01-27T18:01:49.736Z,3.50
2018-01-27T18:04:16.716Z,3.50
2018-01-27T18:06:43.029Z,3.40
2018-01-27T18:09:09.262Z,3.50
2018-01-27T18:11:35.511Z,3.50
2018-01-27T18:14:01.763Z,3.40
2018-01-27T18:16:27.965Z,3.40
2018-01-27T18:18:54.248Z,3.40
2018-01-27T18:21:20.465Z,3.40
2018-01-27T18:23:46.735Z,3.50
2018-01-27T18:26:12.992Z,3.50
2018-01-27T18:28:39.215Z,3.50
2018-01-27T18:31:05.489Z,3.50
2018-01-27T18:33:31.696Z,3.50
2018-01-27T18:35:57.980Z,3.50
2018-01-27T18:38:25.161Z,3.50
2018-01-27T18:40:51.518Z,3.50
2018-01-27T18:43:17.882Z,3.50
2018-01-27T18:45:44.177Z,3.50
2018-01-27T18:48:10.596Z,3.50
2018-01-27T18:50:36.880Z,3.50
2018-01-27T18:53:03.213Z,3.50
2018-01-27T18:55:30.365Z,3.50
2018-01-27T18:57:57.494Z,3.50
2018-01-27T19:00:23.979Z,3.50
2018-01-27T19:02:50.184Z,3.50
2018-01-27T19:05:16.565Z,3.50
2018-01-27T19:07:42.985Z,3.50
2018-01-27T19:10:09.291Z,3.50
2018-01-27T19:12:36.282Z,3.60
2018-01-27T19:15:02.618Z,3.50
2018-01-27T19:17:29.006Z,3.50
2018-01-27T19:19:56.011Z,3.60
2018-01-27T19:22:22.350Z,3.50
2018-01-27T19:24:48.685Z,3.60
2018-01-27T19:27:15.064Z,3.60
2018-01-27T19:29:41.371Z,3.60
2018-01-27T19:32:07.585Z,3.60
2018-01-27T19:34:33.951Z,3.60
2018-01-27T19:37:01.078Z,3.60
2018-01-27T19:39:27.407Z,3.60
2018-01-27T19:41:53.763Z,3.60
2018-01-27T19:44:20.744Z,3.60
2018-01-27T19:46:47.002Z,3.60
2018-01-27T19:49:13.397Z,3.60
2018-01-27T19:51:39.766Z,3.60
2018-01-27T19:54:06.167Z,3.60
2018-01-27T19:56:32.509Z,3.60
2018-01-27T19:58:58.850Z,3.60
2018-01-27T20:01:25.155Z,3.60
2018-01-27T20:03:51.711Z,3.60
2018-01-27T20:06:18.005Z,3.60
2018-01-27T20:08:44.998Z,3.60
2018-01-27T20:11:11.275Z,3.50
2018-01-27T20:13:38.327Z,3.50
2018-01-27T20:16:05.350Z,3.50
2018-01-27T20:18:31.586Z,3.40
2018-01-27T20:20:57.885Z,3.50
2018-01-27T20:23:24.128Z,3.50
2018-01-27T20:25:50.377Z,3.50
2018-01-27T20:28:16.659Z,3.50
2018-01-27T20:30:42.860Z,3.50
2018-01-27T20:33:09.823Z,3.50
2018-01-27T20:35:36.804Z,3.50
2018-01-27T20:38:03.065Z,3.50
2018-01-27T20:40:29.314Z,3.50
2018-01-27T20:42:56.273Z,3.50
2018-01-27T20:45:23.268Z,3.50
2018-01-27T20:47:49.500Z,3.50
2018-01-27T20:50:15.742Z,3.60
2018-01-27T20:52:42.022Z,3.60
2018-01-27T20:55:08.273Z,3.50
2018-01-27T20:57:34.510Z,3.50
2018-01-27T21:00:00.793Z,3.50
2018-01-27T21:02:27.856Z,3.50
2018-01-27T21:04:54.809Z,3.50
2018-01-27T21:07:21.129Z,3.50
2018-01-27T21:09:48.115Z,3.60
2018-01-27T21:12:14.361Z,3.50
2018-01-27T21:14:40.620Z,3.60
2018-01-27T21:17:06.832Z,3.60
2018-01-27T21:19:33.076Z,3.60
2018-01-27T21:21:59.319Z,3.60
2018-01-27T21:24:26.295Z,3.60
2018-01-27T21:26:52.566Z,3.50
2018-01-27T21:29:18.793Z,3.50
2018-01-27T21:31:45.041Z,3.50
2018-01-27T21:34:11.266Z,3.50
2018-01-27T21:36:37.495Z,3.40
2018-01-27T21:39:03.804Z,3.50
2018-01-27T21:41:30.114Z,3.50
2018-01-27T21:43:56.364Z,3.50
2018-01-27T21:46:22.613Z,3.50
2018-01-27T21:48:48.940Z,3.50
2018-01-27T21:51:15.201Z,3.50
2018-01-27T21:53:42.173Z,3.60
2018-01-27T21:56:08.429Z,3.50
2018-01-27T21:58:34.682Z,3.60
2018-01-27T22:01:01.001Z,3.60
2018-01-27T22:03:31.071Z,3.60
2018-01-27T22:05:58.097Z,3.60
2018-01-27T22:08:24.401Z,3.50
2018-01-27T22:10:50.663Z,3.50
2018-01-27T22:13:17.682Z,3.60
2018-01-27T22:15:43.904Z,3.50
2018-01-27T22:18:10.161Z,3.60
2018-01-27T22:20:36.382Z,3.50
2018-01-27T22:23:02.612Z,3.50
2018-01-27T22:25:28.883Z,3.50
2018-01-27T22:27:55.881Z,3.50
2018-01-27T22:30:22.088Z,3.50
2018-01-27T22:32:48.357Z,3.50
2018-01-27T22:35:14.593Z,3.50
2018-01-27T22:37:40.840Z,3.50
2018-01-27T22:40:07.803Z,3.50
2018-01-27T22:42:34.803Z,3.40
2018-01-27T22:45:01.086Z,3.40
2018-01-27T22:47:27.341Z,3.40
2018-01-27T22:49:53.776Z,3.40
2018-01-27T22:52:20.072Z,3.40
2018-01-27T22:54:46.440Z,3.40
2018-01-27T22:57:12.673Z,3.40
2018-01-27T22:59:39.503Z,3.50
2018-01-27T23:02:05.739Z,3.50
2018-01-27T23:04:31.985Z,3.50
2018-01-27T23:06:59.033Z,3.50
2018-01-27T23:09:25.276Z,3.50
2018-01-27T23:11:51.532Z,3.50
2018-01-27T23:14:17.797Z,3.60
2018-01-27T23:16:44.044Z,3.60
2018-01-27T23:19:10.317Z,3.60
2018-01-27T23:21:36.572Z,3.60
2018-01-27T23:24:02.845Z,3.60
2018-01-27T23:26:29.089Z,3.70
2018-01-27T23:28:55.313Z,3.70
2018-01-27T23:31:21.564Z,3.70
2018-01-27T23:33:47.776Z,3.70
2018-01-27T23:36:14.013Z,3.70
2018-01-27T23:38:40.257Z,3.70
2018-01-27T23:41:07.221Z,3.70
2018-01-27T23:43:34.224Z,3.70
2018-01-27T23:46:00.459Z,3.70
2018-01-27T23:48:26.760Z,3.70
2018-01-27T23:50:53.003Z,3.70
2018-01-27T23:53:19.256Z,3.70
2018-01-27T23:55:45.465Z,3.70
2018-01-27T23:58:11.684Z,3.70
